Time;durP1;ratioP1;P1;durP2;ratioP2;P2;SDS_P1;SDS_P2;PMS_P1;PMS_P2;Temp;Humidity;BMP_temperature;BMP_pressure;BME280_temperature;BME280_humidity;BME280_pressure;Samples;Min_cycle;Max_cycle;Signal;HPM_P1;HPM_P2
2023/12/30 00:02:20;;;;;;;10.35;2.95;;;;;;;10.62;76.31;99758.66;6144044;23;20074;-86
2023/12/30 00:04:47;;;;;;;8.23;2.33;;;;;;;10.68;76.26;99754.59;6072298;23;20337;-86
2023/12/30 00:07:14;;;;;;;11.65;2.80;;;;;;;10.63;76.61;99755.88;6044871;23;20375;-85
2023/12/30 00:09:41;;;;;;;13.45;3.30;;;;;;;10.61;77.72;99751.69;6119147;23;20045;-85
2023/12/30 00:12:09;;;;;;;11.52;2.92;;;;;;;10.58;78.66;99751.94;6071423;23;20101;-86
2023/12/30 00:14:36;;;;;;;8.75;2.80;;;;;;;10.56;80.41;99743.28;6120604;23;20091;-85
2023/12/30 00:17:03;;;;;;;11.32;2.42;;;;;;;10.54;80.00;99751.38;6143390;23;20021;-85
2023/12/30 00:19:33;;;;;;;11.85;2.72;;;;;;;10.54;80.44;99739.94;6118372;23;20025;-85
2023/12/30 00:22:01;;;;;;;12.77;2.90;;;;;;;10.52;80.81;99741.88;6143386;23;20049;-85
2023/12/30 00:24:28;;;;;;;7.85;2.78;;;;;;;10.53;80.80;99731.13;6071756;23;20024;-85
2023/12/30 00:26:55;;;;;;;9.80;3.97;;;;;;;10.52;81.09;99728.59;6119136;23;20025;-84
2023/12/30 00:29:22;;;;;;;6.40;2.80;;;;;;;10.53;81.28;99735.59;6143139;23;20025;-85
2023/12/30 00:31:49;;;;;;;9.25;3.50;;;;;;;10.51;81.77;99727.78;6072489;23;20017;-85
2023/12/30 00:34:16;;;;;;;7.93;2.97;;;;;;;10.51;80.86;99740.22;6071243;23;20586;-85
2023/12/30 00:36:44;;;;;;;7.47;3.35;;;;;;;10.51;81.21;99743.72;6094502;23;20037;-85
2023/12/30 00:39:11;;;;;;;11.63;3.13;;;;;;;10.50;81.37;99757.94;6120227;23;22181;-84
2023/12/30 00:41:38;;;;;;;8.63;2.28;;;;;;;10.48;82.10;99759.91;6071809;23;20331;-85
2023/12/30 00:44:05;;;;;;;8.65;3.25;;;;;;;10.42;82.77;99748.00;6120325;23;20022;-85
2023/12/30 00:46:32;;;;;;;7.75;2.60;;;;;;;10.46;82.57;99753.91;6095606;23;20014;-84
2023/12/30 00:48:59;;;;;;;7.15;2.92;;;;;;;10.48;81.96;99753.75;6071567;23;20057;-85
2023/12/30 00:51:26;;;;;;;6.55;2.53;;;;;;;10.47;82.07;99763.53;6118973;23;20040;-87
2023/12/30 00:53:53;;;;;;;7.85;2.33;;;;;;;10.48;82.12;99748.44;6095705;23;20393;-86
2023/12/30 00:56:20;;;;;;;6.53;2.63;;;;;;;10.50;82.19;99757.09;6119292;23;20276;-87
2023/12/30 00:58:47;;;;;;;6.15;2.92;;;;;;;10.50;81.92;99760.59;6095002;23;20045;-87
2023/12/30 01:01:13;;;;;;;8.45;2.50;;;;;;;10.50;81.97;99771.22;6095314;23;20025;-86
2023/12/30 01:03:40;;;;;;;9.65;2.50;;;;;;;10.51;82.06;99762.28;6071089;23;20025;-87
2023/12/30 01:06:08;;;;;;;8.52;2.90;;;;;;;10.43;82.67;99770.94;6089895;23;20061;-86
2023/12/30 01:08:35;;;;;;;10.57;2.70;;;;;;;10.48;82.43;99767.00;6049054;23;20037;-85
2023/12/30 01:11:03;;;;;;;16.92;2.75;;;;;;;10.46;83.02;99768.97;6119887;23;20022;-86
2023/12/30 01:13:30;;;;;;;17.52;3.00;;;;;;;10.53;82.68;99775.41;6143844;23;20055;-86
2023/12/30 01:15:57;;;;;;;10.65;2.97;;;;;;;10.47;83.16;99768.84;6095389;23;20088;-86
2023/12/30 01:18:25;;;;;;;10.30;2.78;;;;;;;10.48;83.57;99781.16;6095776;23;20446;-86
2023/12/30 01:20:52;;;;;;;8.93;2.70;;;;;;;10.48;83.82;99789.13;6119382;23;20022;-86
2023/12/30 01:23:18;;;;;;;5.50;2.47;;;;;;;10.49;84.19;99776.69;6119467;23;20026;-86
2023/12/30 01:25:45;;;;;;;7.85;2.53;;;;;;;10.47;84.47;99774.16;6095348;23;20030;-85
2023/12/30 01:28:12;;;;;;;13.07;2.97;;;;;;;10.43;84.82;99784.22;6042766;23;20096;-85
2023/12/30 01:30:40;;;;;;;8.02;2.88;;;;;;;10.41;85.65;99802.09;6090888;23;20026;-86
2023/12/30 01:33:06;;;;;;;5.68;2.75;;;;;;;10.41;85.45;99799.44;6069420;23;20077;-86
2023/12/30 01:35:34;;;;;;;8.80;3.60;;;;;;;10.40;85.88;99808.34;6119277;23;20029;-86
2023/12/30 01:38:01;;;;;;;8.60;3.10;;;;;;;10.42;86.09;99809.06;6071193;23;20017;-85
2023/12/30 01:40:31;;;;;;;12.68;3.85;;;;;;;10.41;86.39;99809.22;6071790;23;20036;-85
2023/12/30 01:43:02;;;;;;;6.82;2.97;;;;;;;10.41;86.32;99812.69;6095115;23;20464;-85
2023/12/30 01:45:29;;;;;;;8.00;3.58;;;;;;;10.40;86.93;99821.63;6120505;23;20084;-85
2023/12/30 01:47:55;;;;;;;9.35;3.80;;;;;;;10.40;86.93;99824.28;6093899;23;20025;-85
2023/12/30 01:50:22;;;;;;;6.60;3.60;;;;;;;10.40;87.07;99826.94;6095438;23;20453;-85
2023/12/30 01:52:50;;;;;;;11.73;3.60;;;;;;;10.35;88.36;99828.31;6070455;23;20030;-84
2023/12/30 01:55:17;;;;;;;9.07;3.35;;;;;;;10.29;88.51;99823.56;6071036;23;20023;-86
2023/12/30 01:57:44;;;;;;;8.23;2.92;;;;;;;10.34;88.15;99829.31;6095588;23;20414;-87
2023/12/30 02:00:19;;;;;;;9.57;3.95;;;;;;;10.33;88.79;99823.16;6096374;23;20863;-85
2023/12/30 02:02:48;;;;;;;13.38;3.30;;;;;;;10.28;89.36;99825.38;6145125;23;20032;-86
2023/12/30 02:05:15;;;;;;;7.65;2.70;;;;;;;10.28;89.32;99828.03;6120439;23;20028;-86
2023/12/30 02:07:47;;;;;;;9.15;3.50;;;;;;;10.30;89.11;99827.88;6096705;23;20026;-86
2023/12/30 02:10:13;;;;;;;11.98;3.20;;;;;;;10.32;89.37;99832.06;6095901;23;20021;-86
2023/12/30 02:12:40;;;;;;;9.93;2.97;;;;;;;10.33;89.33;99823.16;6094983;23;20350;-86
2023/12/30 02:15:14;;;;;;;10.57;3.33;;;;;;;10.35;89.18;99837.09;6093250;23;20485;-86
2023/12/30 02:17:41;;;;;;;10.75;2.92;;;;;;;10.35;89.58;99830.97;6095515;23;20074;-86
2023/12/30 02:20:09;;;;;;;7.10;2.92;;;;;;;10.36;89.52;99827.34;6067518;23;20026;-85
2023/12/30 02:22:44;;;;;;;9.35;3.00;;;;;;;10.29;90.74;99831.50;6096342;23;20433;-85
2023/12/30 02:25:12;;;;;;;7.20;3.80;;;;;;;10.30;90.66;99835.84;6096599;23;20037;-86
2023/12/30 02:27:41;;;;;;;9.88;3.58;;;;;;;10.27;91.11;99836.09;6145802;23;20017;-85
2023/12/30 02:30:09;;;;;;;7.90;3.15;;;;;;;10.29;90.65;99836.81;6095905;23;20656;-85
2023/12/30 02:32:36;;;;;;;4.95;2.88;;;;;;;10.32;90.68;99839.19;6120595;23;20395;-85
2023/12/30 02:35:04;;;;;;;6.32;3.00;;;;;;;10.31;90.77;99837.53;6072847;23;20386;-85
2023/12/30 02:37:30;;;;;;;8.35;3.20;;;;;;;10.28;91.74;99849.25;6096088;23;20092;-86
2023/12/30 02:39:58;;;;;;;7.20;2.90;;;;;;;10.26;91.99;99853.00;6095767;23;20354;-85
2023/12/30 02:42:24;;;;;;;5.13;2.83;;;;;;;10.29;91.36;99848.28;6120686;23;20033;-87
2023/12/30 02:44:52;;;;;;;7.20;2.97;;;;;;;10.34;91.05;99855.84;6121101;23;20032;-85
2023/12/30 02:47:18;;;;;;;17.40;5.80;;;;;;;10.28;91.27;99851.06;6095711;23;20087;-85
2023/12/30 02:49:45;;;;;;;10.60;3.45;;;;;;;10.29;91.41;99855.41;6097296;23;20020;-85
2023/12/30 02:52:12;;;;;;;8.82;2.75;;;;;;;10.31;91.47;99858.78;6072431;23;20033;-85
2023/12/30 02:54:39;;;;;;;12.80;3.17;;;;;;;10.33;91.37;99868.28;6072618;23;20076;-85
2023/12/30 02:57:06;;;;;;;7.25;3.05;;;;;;;10.33;91.63;99862.09;6096429;23;20353;-85
2023/12/30 02:59:33;;;;;;;6.53;3.13;;;;;;;10.22;92.73;99858.53;6095583;23;20041;-85
2023/12/30 03:02:00;;;;;;;5.43;3.05;;;;;;;10.26;91.90;99859.13;6095462;23;20044;-87
2023/12/30 03:04:27;;;;;;;5.68;2.95;;;;;;;10.28;91.74;99859.88;6072808;23;20017;-86
2023/12/30 03:06:54;;;;;;;8.07;3.08;;;;;;;10.29;91.65;99866.03;6072272;23;20025;-86
2023/12/30 03:09:21;;;;;;;6.88;2.78;;;;;;;10.21;92.02;99856.03;6119568;23;20349;-85
2023/12/30 03:11:48;;;;;;;9.70;3.10;;;;;;;10.22;91.91;99857.72;6072371;23;20092;-86
2023/12/30 03:14:15;;;;;;;6.70;2.38;;;;;;;10.16;92.66;99851.13;6095986;23;20048;-85
2023/12/30 03:16:41;;;;;;;10.57;2.85;;;;;;;10.22;92.02;99855.88;6145173;23;20029;-85
2023/12/30 03:19:08;;;;;;;11.55;2.80;;;;;;;10.21;92.09;99856.88;6093950;23;20034;-85
2023/12/30 03:21:35;;;;;;;13.50;2.90;;;;;;;10.23;91.78;99856.75;6093735;23;20033;-86
2023/12/30 03:24:03;;;;;;;7.35;3.05;;;;;;;10.19;92.25;99863.28;6067425;23;20036;-85
2023/12/30 03:26:30;;;;;;;7.72;2.53;;;;;;;10.25;92.00;99861.91;6095731;23;20112;-86
2023/12/30 03:28:56;;;;;;;4.35;2.55;;;;;;;10.23;92.22;99870.03;6119716;23;20025;-86
2023/12/30 03:31:24;;;;;;;5.45;2.45;;;;;;;10.22;92.08;99873.63;6120821;23;20017;-85
2023/12/30 03:33:51;;;;;;;8.23;3.15;;;;;;;10.24;91.80;99878.81;6072042;23;20029;-86
2023/12/30 03:36:19;;;;;;;7.43;2.78;;;;;;;10.24;91.72;99862.88;6096548;23;20032;-85
2023/12/30 03:38:48;;;;;;;7.30;2.83;;;;;;;10.27;91.62;99875.88;6119575;23;20033;-86
2023/12/30 03:41:16;;;;;;;7.18;2.55;;;;;;;10.26;91.47;99874.22;6120934;23;20021;-85
2023/12/30 03:43:43;;;;;;;9.10;2.28;;;;;;;10.22;91.82;99868.31;6095449;23;20026;-86
2023/12/30 03:46:09;;;;;;;6.75;2.50;;;;;;;10.25;91.81;99872.53;6070171;23;20523;-86
2023/12/30 03:48:37;;;;;;;10.30;3.30;;;;;;;10.10;93.57;99867.59;6072407;23;20029;-87
2023/12/30 03:51:05;;;;;;;11.77;4.07;;;;;;;10.19;93.03;99869.44;6096171;23;20453;-86
2023/12/30 03:53:33;;;;;;;5.97;3.25;;;;;;;10.20;92.73;99872.91;6119971;23;20029;-87
2023/12/30 03:56:00;;;;;;;7.57;3.17;;;;;;;10.23;92.61;99870.03;6094564;23;20022;-86
2023/12/30 03:58:27;;;;;;;8.13;3.17;;;;;;;10.24;92.11;99868.19;6120886;23;20076;-86
2023/12/30 04:00:54;;;;;;;7.97;3.40;;;;;;;10.17;92.99;99863.41;6094771;23;20076;-86
2023/12/30 04:03:21;;;;;;;19.17;4.53;;;;;;;10.21;92.88;99864.00;6071372;23;20025;-86
2023/12/30 04:06:22;;;;;;;9.63;3.55;;;;;;;10.20;92.92;99871.13;6095210;23;20100;-85
2023/12/30 04:08:49;;;;;;;8.32;3.35;;;;;;;10.25;92.32;99864.56;6091140;23;20017;-86
2023/12/30 04:11:16;;;;;;;11.25;3.53;;;;;;;10.22;92.37;99869.16;6143152;23;20107;-85
2023/12/30 04:13:43;;;;;;;12.68;3.30;;;;;;;10.28;91.99;99881.09;6071159;23;20097;-86
2023/12/30 04:16:10;;;;;;;10.05;4.53;;;;;;;10.21;92.36;99877.25;6069454;23;20481;-85
2023/12/30 04:18:38;;;;;;;4.57;2.70;;;;;;;10.25;91.88;99869.88;6066509;23;20041;-85
2023/12/30 04:21:05;;;;;;;10.70;2.83;;;;;;;10.25;91.76;99869.88;6088796;23;20044;-85
2023/12/30 04:23:32;;;;;;;5.18;2.63;;;;;;;10.25;91.96;99868.03;6090911;23;20093;-85
2023/12/30 04:25:59;;;;;;;6.35;3.25;;;;;;;10.24;91.92;99869.03;6089693;23;20434;-85
2023/12/30 04:28:26;;;;;;;9.77;3.10;;;;;;;10.26;91.96;99864.44;6066731;23;20484;-86
2023/12/30 04:30:53;;;;;;;6.68;2.88;;;;;;;10.27;91.81;99875.88;6090094;23;20323;-85
2023/12/30 04:33:20;;;;;;;6.40;2.67;;;;;;;10.28;91.63;99875.81;6095169;23;20100;-85
2023/12/30 04:35:47;;;;;;;4.68;2.70;;;;;;;10.27;91.15;99870.59;6119117;23;20028;-86
2023/12/30 04:38:15;;;;;;;11.73;3.05;;;;;;;10.27;91.26;99881.19;6095132;23;20025;-85
2023/12/30 04:40:41;;;;;;;5.93;2.88;;;;;;;10.28;91.48;99874.94;6118148;23;20366;-86
2023/12/30 04:43:08;;;;;;;6.25;2.80;;;;;;;10.29;91.44;99866.84;6095362;23;20026;-85
2023/12/30 04:45:36;;;;;;;9.43;2.67;;;;;;;10.29;91.43;99872.16;6095774;23;20024;-85
2023/12/30 04:48:04;;;;;;;7.85;2.88;;;;;;;10.30;91.14;99880.97;6117877;23;20087;-85
2023/12/30 04:50:32;;;;;;;11.18;2.88;;;;;;;10.29;91.14;99877.47;6094210;23;20520;-86
2023/12/30 04:52:59;;;;;;;8.10;3.20;;;;;;;10.26;91.30;99883.00;6071225;23;20076;-85
2023/12/30 04:55:26;;;;;;;13.68;4.90;;;;;;;10.22;91.67;99876.28;6119362;23;20018;-85
2023/12/30 04:57:53;;;;;;;8.63;2.65;;;;;;;10.24;91.43;99874.34;6094274;23;20018;-85
2023/12/30 05:00:21;;;;;;;7.90;3.00;;;;;;;10.22;91.47;99873.63;6070872;23;20060;-85
2023/12/30 05:02:50;;;;;;;8.57;3.22;;;;;;;10.24;91.23;99877.00;6095387;23;20022;-85
2023/12/30 05:05:16;;;;;;;15.73;4.53;;;;;;;10.28;91.28;99886.41;6093379;23;20037;-85
2023/12/30 05:07:44;;;;;;;7.47;3.42;;;;;;;10.25;90.84;99876.00;6070666;23;20108;-86
2023/12/30 05:10:11;;;;;;;9.93;3.10;;;;;;;10.26;91.00;99875.06;6095496;23;20025;-85
2023/12/30 05:12:37;;;;;;;10.25;2.70;;;;;;;10.21;90.97;99887.88;6094895;23;20030;-85
2023/12/30 05:15:05;;;;;;;11.35;3.10;;;;;;;10.25;90.48;99881.31;6095368;23;20029;-87
2023/12/30 05:17:32;;;;;;;16.75;3.80;;;;;;;10.26;90.75;99892.78;6120419;23;20327;-85
2023/12/30 05:19:59;;;;;;;8.07;3.17;;;;;;;10.27;90.69;99891.81;6095083;23;20369;-85
2023/12/30 05:22:26;;;;;;;10.18;2.67;;;;;;;10.27;90.39;99890.00;6095135;23;20037;-86
2023/12/30 05:24:54;;;;;;;8.50;3.20;;;;;;;10.28;90.50;99890.84;6071643;23;20029;-85
2023/12/30 05:27:21;;;;;;;4.75;2.83;;;;;;;10.30;90.13;99887.09;6118860;23;20080;-85
2023/12/30 05:29:47;;;;;;;5.70;2.60;;;;;;;10.28;89.99;99894.38;6118062;23;20096;-85
2023/12/30 05:32:14;;;;;;;7.35;3.00;;;;;;;10.29;90.12;99896.03;6118117;23;20345;-85
2023/12/30 05:34:41;;;;;;;6.82;2.92;;;;;;;10.28;89.91;99906.78;6118392;23;20029;-85
2023/12/30 05:37:08;;;;;;;10.05;2.83;;;;;;;10.11;90.40;99914.34;6041727;23;20195;-88
2023/12/30 05:39:35;;;;;;;8.75;2.53;;;;;;;10.20;90.17;99902.09;6089012;23;20041;-86
2023/12/30 05:42:02;;;;;;;5.18;2.53;;;;;;;10.24;90.05;99905.34;6089253;23;20046;-85
2023/12/30 05:44:29;;;;;;;5.07;2.28;;;;;;;10.25;89.37;99907.03;6092637;23;21001;-88
2023/12/30 05:46:56;;;;;;;6.95;2.72;;;;;;;10.23;89.57;99893.91;6067854;23;20053;-85
2023/12/30 05:49:23;;;;;;;6.07;3.50;;;;;;;10.25;89.74;99904.38;6064333;23;20469;-85
2023/12/30 05:51:50;;;;;;;7.72;3.03;;;;;;;10.25;89.59;99905.19;6048400;23;20628;-85
2023/12/30 05:54:17;;;;;;;6.30;2.63;;;;;;;10.23;89.45;99896.56;6067469;23;20030;-85
2023/12/30 05:56:44;;;;;;;6.18;2.50;;;;;;;10.22;89.11;99910.78;6066246;23;20014;-86
2023/12/30 05:59:11;;;;;;;8.32;2.55;;;;;;;10.22;89.15;99901.00;6116571;23;20108;-86
2023/12/30 06:01:45;;;;;;;13.07;2.90;;;;;;;10.22;89.22;99911.63;6065563;23;20040;-87
2023/12/30 06:04:14;;;;;;;9.95;2.67;;;;;;;10.22;88.86;99901.00;6065369;23;20041;-89
2023/12/30 06:06:42;;;;;;;11.48;3.08;;;;;;;10.23;88.93;99901.88;6088573;23;20026;-85
2023/12/30 06:09:09;;;;;;;5.90;2.42;;;;;;;10.21;89.11;99901.16;6066705;23;20029;-85
2023/12/30 06:11:35;;;;;;;4.28;2.58;;;;;;;10.23;88.64;99907.16;6065471;23;20018;-86
2023/12/30 06:14:03;;;;;;;7.07;2.28;;;;;;;10.24;88.92;99902.69;6095877;23;20020;-85
2023/12/30 06:16:29;;;;;;;5.63;2.45;;;;;;;10.21;88.63;99906.47;6065120;23;20022;-85
2023/12/30 06:18:56;;;;;;;9.38;3.25;;;;;;;10.21;88.40;99899.34;6041744;23;20020;-88
2023/12/30 06:21:23;;;;;;;5.43;2.78;;;;;;;10.20;88.20;99910.94;6090054;23;20018;-85
2023/12/30 06:23:50;;;;;;;8.30;3.97;;;;;;;10.24;88.40;99926.59;6113657;23;20053;-86
2023/12/30 06:26:17;;;;;;;9.05;2.50;;;;;;;10.19;88.04;99921.66;6089177;23;20447;-87
2023/12/30 06:28:45;;;;;;;12.50;2.67;;;;;;;10.22;88.00;99921.41;6142528;23;20794;-86
2023/12/30 06:31:12;;;;;;;7.63;2.72;;;;;;;10.20;87.46;99918.91;6117861;23;20025;-86
2023/12/30 06:33:39;;;;;;;4.28;2.13;;;;;;;10.20;88.24;99921.53;6069950;23;20030;-87
2023/12/30 06:36:06;;;;;;;7.10;2.67;;;;;;;10.21;88.13;99928.53;6118209;23;20048;-85
2023/12/30 06:38:33;;;;;;;9.77;2.42;;;;;;;10.23;88.32;99941.66;6093752;23;20017;-86
2023/12/30 06:41:00;;;;;;;6.18;3.25;;;;;;;10.21;87.89;99939.13;6118373;23;20104;-86
2023/12/30 06:43:27;;;;;;;9.50;2.63;;;;;;;10.21;88.32;99943.59;6095367;23;20519;-86
2023/12/30 06:45:54;;;;;;;10.77;2.85;;;;;;;10.22;88.13;99940.81;6118818;23;20021;-86
2023/12/30 06:48:21;;;;;;;6.97;2.90;;;;;;;10.24;88.12;99945.16;6096327;23;20096;-85
2023/12/30 06:50:48;;;;;;;7.13;2.38;;;;;;;10.25;88.36;99947.66;6119528;23;20026;-86
2023/12/30 06:53:15;;;;;;;11.82;2.72;;;;;;;10.24;88.55;99940.69;6095670;23;20096;-86
2023/12/30 06:55:41;;;;;;;14.25;4.60;;;;;;;10.24;88.74;99942.50;6145131;23;20056;-85
2023/12/30 06:58:14;;;;;;;12.43;2.30;;;;;;;10.18;88.66;99950.03;6096436;23;20024;-86
2023/12/30 07:00:40;;;;;;;7.30;2.83;;;;;;;10.21;88.68;99951.56;6095207;23;20267;-85
2023/12/30 07:03:07;;;;;;;7.75;2.60;;;;;;;10.21;88.81;99948.91;6096022;23;20033;-85
2023/12/30 07:05:35;;;;;;;6.60;2.55;;;;;;;10.20;89.07;99947.22;6072102;23;20457;-85
2023/12/30 07:08:04;;;;;;;6.90;2.30;;;;;;;10.21;88.68;99952.41;6120511;23;20021;-85
2023/12/30 07:10:30;;;;;;;5.68;2.97;;;;;;;10.19;88.89;99954.34;6095640;23;20402;-86
2023/12/30 07:12:57;;;;;;;8.57;2.75;;;;;;;10.23;88.94;99957.59;6143614;23;20309;-87
2023/12/30 07:15:25;;;;;;;7.25;2.78;;;;;;;10.25;88.84;99960.94;6120347;23;20051;-86
2023/12/30 07:17:52;;;;;;;9.18;2.53;;;;;;;10.24;88.99;99956.59;6095594;23;20028;-86
2023/12/30 07:20:21;;;;;;;10.10;2.30;;;;;;;10.24;88.94;99959.25;6143687;23;20056;-86
2023/12/30 07:22:48;;;;;;;10.65;2.60;;;;;;;10.22;89.04;99962.03;6119775;23;20021;-86
2023/12/30 07:25:15;;;;;;;6.22;2.42;;;;;;;10.22;89.15;99977.97;6119581;23;20033;-86
2023/12/30 07:27:41;;;;;;;7.10;2.63;;;;;;;10.21;89.31;99970.97;6094882;23;20030;-86
2023/12/30 07:30:09;;;;;;;7.18;2.40;;;;;;;10.22;89.15;99962.03;6092485;23;20029;-85
2023/12/30 07:32:37;;;;;;;12.80;2.45;;;;;;;10.26;89.10;99972.41;6090816;23;20402;-86
2023/12/30 07:35:05;;;;;;;5.80;2.50;;;;;;;10.26;88.98;99969.75;6118803;23;20052;-86
2023/12/30 07:37:33;;;;;;;14.13;2.67;;;;;;;10.26;89.22;99985.69;6119023;23;20029;-86
2023/12/30 07:40:02;;;;;;;9.10;2.78;;;;;;;10.24;89.19;99984.97;6044169;23;20020;-86
2023/12/30 07:42:30;;;;;;;9.77;3.75;;;;;;;10.23;89.30;99992.09;6119972;23;20080;-86
2023/12/30 07:44:57;;;;;;;10.43;3.38;;;;;;;10.22;89.48;99996.53;6094830;23;20072;-86
2023/12/30 07:47:25;;;;;;;14.60;3.05;;;;;;;10.24;89.24;99991.09;6094808;23;20033;-87
2023/12/30 07:49:53;;;;;;;10.35;2.90;;;;;;;10.24;89.40;100000.88;6120215;23;20017;-86
2023/12/30 07:52:20;;;;;;;11.48;2.90;;;;;;;10.25;89.22;99995.44;6119066;23;20802;-86
2023/12/30 07:54:47;;;;;;;5.28;2.55;;;;;;;10.25;89.54;99997.25;6119366;23;20024;-86
2023/12/30 07:57:14;;;;;;;7.40;2.45;;;;;;;10.26;89.36;99999.78;6094855;23;20021;-86
2023/12/30 07:59:40;;;;;;;5.90;2.70;;;;;;;10.25;89.62;100006.06;6119840;23;20088;-86
2023/12/30 08:02:07;;;;;;;7.55;2.53;;;;;;;10.26;89.97;100010.41;6094127;23;20108;-86
2023/12/30 08:04:34;;;;;;;9.75;3.85;;;;;;;10.24;89.85;100016.81;6119223;23;20016;-86
2023/12/30 08:07:02;;;;;;;6.63;2.58;;;;;;;10.27;89.85;100017.38;6060114;23;20021;-85
2023/12/30 08:09:31;;;;;;;7.68;2.35;;;;;;;10.28;89.84;100019.13;6036794;23;20041;-85
2023/12/30 08:12:09;;;;;;;10.13;2.53;;;;;;;10.27;89.97;100016.56;6084229;23;20029;-85
2023/12/30 08:14:37;;;;;;;10.60;2.70;;;;;;;10.28;89.90;100018.25;6071289;23;20516;-86
2023/12/30 08:17:05;;;;;;;6.30;2.10;;;;;;;10.28;89.91;100027.09;6120120;23;20021;-82
2023/12/30 08:19:31;;;;;;;8.65;2.30;;;;;;;10.29;90.16;100019.97;6095774;23;20044;-82
2023/12/30 08:21:58;;;;;;;4.32;2.17;;;;;;;10.29;90.21;100028.75;6095555;23;20080;-82
2023/12/30 08:24:28;;;;;;;11.82;2.92;;;;;;;10.30;89.97;100026.94;6120290;23;20093;-83
2023/12/30 08:26:55;;;;;;;7.55;2.03;;;;;;;10.32;90.06;100025.00;6120844;23;20048;-83
2023/12/30 08:29:22;;;;;;;7.22;2.10;;;;;;;10.32;89.90;100017.88;6072058;23;20037;-83
2023/12/30 08:31:49;;;;;;;4.95;2.42;;;;;;;10.33;89.75;100042.59;6144572;23;20076;-83
2023/12/30 08:34:16;;;;;;;7.15;2.25;;;;;;;10.32;90.09;100028.50;6119328;23;20024;-82
2023/12/30 08:36:44;;;;;;;9.38;2.53;;;;;;;10.31;90.04;100031.28;6119753;23;20025;-83
2023/12/30 08:39:10;;;;;;;8.18;2.33;;;;;;;10.33;90.31;100032.84;6120488;23;20020;-82
2023/12/30 08:41:37;;;;;;;5.88;1.90;;;;;;;10.32;90.06;100027.66;6095059;23;20100;-82
2023/12/30 08:44:04;;;;;;;7.10;2.50;;;;;;;10.29;90.04;100028.75;6070758;23;20311;-83
2023/12/30 08:46:31;;;;;;;3.17;2.00;;;;;;;10.33;90.14;100029.31;6120150;23;20073;-82
2023/12/30 08:48:59;;;;;;;9.23;1.77;;;;;;;10.36;90.05;100039.72;6119387;23;20081;-82
2023/12/30 08:51:29;;;;;;;9.23;2.75;;;;;;;10.35;90.38;100038.84;6119512;23;20053;-83
2023/12/30 08:53:56;;;;;;;7.25;2.10;;;;;;;10.35;90.23;100035.34;6143279;23;20052;-82
2023/12/30 08:56:24;;;;;;;5.22;2.38;;;;;;;10.34;90.29;100039.81;6120085;23;20109;-82
2023/12/30 08:58:51;;;;;;;5.35;2.35;;;;;;;10.33;90.39;100046.13;6095520;23;20480;-83
2023/12/30 09:01:18;;;;;;;7.20;2.33;;;;;;;10.31;90.61;100045.41;6094793;23;20049;-84
2023/12/30 09:03:45;;;;;;;5.70;2.53;;;;;;;10.30;90.83;100042.84;6120613;23;20346;-82
2023/12/30 09:06:12;;;;;;;5.35;2.22;;;;;;;10.25;91.36;100037.91;6070874;23;20025;-82
2023/12/30 09:08:40;;;;;;;7.68;2.83;;;;;;;10.28;91.17;100036.84;6094764;23;20631;-83
2023/12/30 09:11:19;;;;;;;7.20;2.58;;;;;;;10.30;90.86;100029.59;6072393;23;20022;-82
2023/12/30 09:13:47;;;;;;;6.72;3.03;;;;;;;10.35;91.12;100040.66;6118898;23;20021;-85
2023/12/30 09:16:14;;;;;;;8.40;3.10;;;;;;;10.36;91.14;100034.41;6093768;23;20017;-85
2023/12/30 09:18:46;;;;;;;9.38;2.70;;;;;;;10.31;91.49;100033.94;6120356;23;20021;-86
2023/12/30 09:21:13;;;;;;;5.90;2.05;;;;;;;10.34;91.09;100037.16;6093867;23;20026;-84
2023/12/30 09:23:40;;;;;;;5.20;2.30;;;;;;;10.33;91.20;100035.50;6071590;23;20045;-83
2023/12/30 09:26:07;;;;;;;10.13;2.65;;;;;;;10.34;91.07;100037.16;6119421;23;20108;-84
2023/12/30 09:28:34;;;;;;;13.48;3.55;;;;;;;10.40;90.66;100031.31;6119986;23;20457;-84
2023/12/30 09:31:01;;;;;;;7.43;2.47;;;;;;;10.42;90.74;100034.69;6071206;23;20520;-84
2023/12/30 09:33:28;;;;;;;12.13;2.60;;;;;;;10.44;90.50;100031.94;6094780;23;20053;-84
2023/12/30 09:35:56;;;;;;;5.60;2.38;;;;;;;10.47;90.54;100033.47;6117882;23;20109;-84
2023/12/30 09:38:23;;;;;;;7.50;2.75;;;;;;;10.50;90.41;100031.41;6095293;23;20017;-84
2023/12/30 09:40:52;;;;;;;4.97;2.30;;;;;;;10.41;90.42;100043.66;6143802;23;20032;-82
2023/12/30 09:43:25;;;;;;;20.92;9.30;;;;;;;10.57;92.24;100037.88;6142822;23;20044;-80
2023/12/30 09:45:53;;;;;;;8.07;2.53;;;;;;;10.63;91.05;100039.16;6119409;23;20029;-81
2023/12/30 09:48:24;;;;;;;4.35;2.15;;;;;;;10.62;90.30;100040.13;6119782;23;20044;-81
2023/12/30 09:50:53;;;;;;;7.97;2.17;;;;;;;10.60;90.04;100048.22;6144946;23;20025;-80
2023/12/30 09:53:45;;;;;;;12.93;3.75;;;;;;;10.55;89.60;100052.25;6096348;23;20080;-81
2023/12/30 09:56:12;;;;;;;13.50;2.92;;;;;;;10.60;89.73;100047.38;6119631;23;20107;-81
2023/12/30 09:58:40;;;;;;;3.63;1.90;;;;;;;10.63;89.54;100045.34;6120444;23;20025;-81
2023/12/30 10:01:07;;;;;;;7.05;2.40;;;;;;;10.65;89.71;100053.97;6096484;23;20741;-80
2023/12/30 10:03:34;;;;;;;9.23;2.30;;;;;;;10.63;88.71;100052.44;6096019;23;20029;-80
2023/12/30 10:06:04;;;;;;;9.82;3.00;;;;;;;10.63;88.67;100055.09;6120144;23;20025;-81
2023/12/30 10:08:30;;;;;;;16.13;3.63;;;;;;;10.67;88.95;100059.19;6119778;23;20048;-81
2023/12/30 10:10:57;;;;;;;9.35;2.97;;;;;;;10.65;88.62;100058.47;6120306;23;20472;-81
2023/12/30 10:13:27;;;;;;;10.95;2.55;;;;;;;10.67;88.18;100053.03;6120485;23;20096;-81
2023/12/30 10:15:56;;;;;;;9.95;3.72;;;;;;;10.68;88.36;100055.53;6121186;23;20022;-81
2023/12/30 10:18:23;;;;;;;7.53;2.78;;;;;;;10.67;88.20;100051.22;6120839;23;20029;-81
2023/12/30 10:20:51;;;;;;;12.65;2.35;;;;;;;10.64;87.49;100046.16;6122161;23;20476;-81
2023/12/30 10:23:18;;;;;;;5.78;1.90;;;;;;;10.62;87.51;100056.06;6098261;23;20017;-80
2023/12/30 10:25:45;;;;;;;7.03;2.15;;;;;;;10.66;87.44;100036.25;6098191;23;20540;-81
2023/12/30 10:28:12;;;;;;;10.60;2.28;;;;;;;10.65;87.42;100040.72;6146980;23;20711;-81
2023/12/30 10:30:39;;;;;;;10.05;2.17;;;;;;;10.62;87.17;100054.25;6121432;23;20028;-80
2023/12/30 10:33:09;;;;;;;8.60;2.20;;;;;;;10.68;87.36;100055.53;6073772;23;20025;-81
2023/12/30 10:35:43;;;;;;;13.00;2.40;;;;;;;10.65;86.91;100051.34;6098158;23;20429;-81
2023/12/30 10:38:12;;;;;;;11.00;2.58;;;;;;;10.68;86.99;100046.75;6121849;23;20114;-81
2023/12/30 10:40:40;;;;;;;9.50;2.28;;;;;;;10.70;87.10;100044.78;6073628;23;20029;-80
2023/12/30 10:43:08;;;;;;;11.40;3.13;;;;;;;10.58;85.72;100054.63;6093837;23;20449;-81
2023/12/30 10:45:35;;;;;;;14.05;4.45;;;;;;;10.68;86.46;100052.03;6069816;23;20052;-81
2023/12/30 10:48:05;;;;;;;15.25;5.05;;;;;;;10.69;86.77;100046.63;6098064;23;20028;-81
2023/12/30 10:50:32;;;;;;;11.48;3.47;;;;;;;10.73;87.06;100045.38;6098088;23;20044;-81
2023/12/30 10:53:01;;;;;;;11.88;3.50;;;;;;;10.71;86.37;100060.63;6097486;23;20437;-81
2023/12/30 10:55:32;;;;;;;12.82;4.00;;;;;;;10.73;86.13;100052.50;6122635;23;20392;-82
2023/12/30 10:58:06;;;;;;;8.40;2.25;;;;;;;10.69;85.46;100054.59;6097886;23;20021;-85
2023/12/30 11:00:35;;;;;;;10.07;2.40;;;;;;;10.68;85.19;100044.09;6121814;23;20516;-81
2023/12/30 11:03:05;;;;;;;11.60;3.05;;;;;;;10.71;85.48;100049.13;6121966;23;20325;-81
2023/12/30 11:05:39;;;;;;;5.85;2.13;;;;;;;10.70;84.93;100044.78;6073582;23;20029;-81
2023/12/30 11:08:06;;;;;;;10.40;2.55;;;;;;;10.74;85.41;100043.56;6121905;23;20460;-81
2023/12/30 11:10:33;;;;;;;7.18;2.00;;;;;;;10.74;85.18;100047.06;6097558;23;20100;-81
2023/12/30 11:13:00;;;;;;;6.57;2.10;;;;;;;10.76;85.54;100041.59;6122266;23;20319;-81
2023/12/30 11:15:30;;;;;;;15.18;2.58;;;;;;;10.80;85.13;100053.66;6146743;23;20104;-80
2023/12/30 11:17:57;;;;;;;5.25;1.92;;;;;;;10.77;84.71;100046.78;6073399;23;20017;-81
2023/12/30 11:20:30;;;;;;;5.95;2.00;;;;;;;10.80;85.10;100040.38;6097977;23;20021;-81
2023/12/30 11:22:59;;;;;;;5.07;1.80;;;;;;;10.79;85.22;100036.88;6073760;23;20354;-80
2023/12/30 11:25:38;;;;;;;8.07;2.22;;;;;;;10.77;84.27;100043.31;6097563;23;20461;-81
2023/12/30 11:28:19;;;;;;;8.57;1.90;;;;;;;10.75;83.95;100045.25;6098159;23;20358;-81
2023/12/30 11:30:56;;;;;;;9.82;3.22;;;;;;;10.75;84.49;100042.59;6121564;23;20021;-81
2023/12/30 11:33:23;;;;;;;7.20;2.45;;;;;;;10.79;84.98;100046.69;6097618;23;20025;-81